Terminal Aerodrome Forecast
Issued by NWS

Home | Current Version | Previous Version | Text Only | Print | Product List | Glossary On
Versions: 1 2 3 4 5 6 7 8 9 10 11 12 13 14 15 16 17 18
000
FTUS41 KBTV 212300
TAFMPV
TAF
KMPV 212330Z 2200/2224 34003KT 5SM BR VCSH OVC006
      TEMPO 2200/2204 2SM -RA BR
     FM221400 35007KT P6SM VCSH OVC012
     FM221800 35010KT 4SM -RA BR OVC007=

USA.gov is the U.S. government's official web portal to all federal, state and local government web resources and services.